Time;durP1;ratioP1;P1;durP2;ratioP2;P2;SDS_P1;SDS_P2;PMS_P1;PMS_P2;Temp;Humidity;BMP_temperature;BMP_pressure;BME280_temperature;BME280_humidity;BME280_pressure;Samples;Min_cycle;Max_cycle;Signal;HPM_P1;HPM_P2
2023/12/15 00:00:56;;;;;;;10.70;7.53;;;15.60;65.00;;;;;;5038973;28;20450;-77
2023/12/15 00:03:23;;;;;;;8.93;7.13;;;15.60;64.80;;;;;;5033413;28;20448;-77
2023/12/15 00:05:52;;;;;;;9.77;6.70;;;15.60;64.90;;;;;;5026662;28;20464;-77
2023/12/15 00:08:20;;;;;;;8.90;7.00;;;15.60;65.10;;;;;;5029625;28;20471;-78
2023/12/15 00:10:48;;;;;;;7.00;6.30;;;15.60;65.60;;;;;;5034034;28;20436;-77
2023/12/15 00:13:17;;;;;;;7.07;5.90;;;15.60;65.10;;;;;;5034497;28;20471;-77
2023/12/15 00:15:45;;;;;;;9.60;6.87;;;15.60;65.20;;;;;;5033689;28;20463;-76
2023/12/15 00:18:13;;;;;;;9.73;6.50;;;15.60;64.80;;;;;;5032186;28;20475;-77
2023/12/15 00:20:42;;;;;;;9.70;6.67;;;15.50;65.10;;;;;;5033706;28;20459;-76
2023/12/15 00:23:10;;;;;;;7.60;6.50;;;15.60;65.30;;;;;;5033100;28;20451;-76
2023/12/15 00:25:38;;;;;;;9.57;6.70;;;15.60;65.10;;;;;;5032824;28;20476;-77
2023/12/15 00:28:06;;;;;;;8.47;6.53;;;15.60;65.20;;;;;;5032368;28;20427;-77
2023/12/15 00:30:35;;;;;;;7.93;6.30;;;15.60;65.10;;;;;;5032292;28;20574;-76
2023/12/15 00:33:03;;;;;;;8.80;6.50;;;15.60;65.10;;;;;;5031939;28;20431;-76
2023/12/15 00:35:31;;;;;;;10.33;6.90;;;15.50;65.20;;;;;;5031509;28;20475;-76
2023/12/15 00:37:59;;;;;;;8.27;6.50;;;15.60;65.10;;;;;;5031163;28;20974;-77
2023/12/15 00:40:28;;;;;;;7.70;6.20;;;15.50;65.00;;;;;;5029388;28;20439;-76
2023/12/15 00:42:55;;;;;;;10.37;6.97;;;15.50;65.10;;;;;;5032659;28;20482;-77
2023/12/15 00:45:23;;;;;;;10.90;6.60;;;15.50;65.10;;;;;;5032153;28;20474;-77
2023/12/15 00:47:53;;;;;;;7.67;5.90;;;15.50;65.10;;;;;;5032943;28;20443;-77
2023/12/15 00:50:21;;;;;;;8.03;6.40;;;15.50;65.30;;;;;;5034828;28;20467;-77
2023/12/15 00:52:49;;;;;;;7.60;6.00;;;15.60;65.20;;;;;;5035003;28;20498;-77
2023/12/15 00:55:17;;;;;;;7.93;6.17;;;15.50;65.20;;;;;;5035089;28;20443;-77
2023/12/15 00:57:45;;;;;;;8.63;6.20;;;15.50;65.20;;;;;;5033055;28;20471;-77
2023/12/15 01:00:14;;;;;;;9.33;7.10;;;15.50;65.30;;;;;;5033074;28;20439;-77
2023/12/15 01:02:42;;;;;;;10.20;6.77;;;15.50;65.30;;;;;;5033439;28;20554;-77
2023/12/15 01:05:11;;;;;;;10.63;7.40;;;15.50;65.20;;;;;;5032809;28;20448;-76
2023/12/15 01:07:40;;;;;;;10.60;7.37;;;15.50;65.50;;;;;;5027977;28;20463;-77
2023/12/15 01:10:08;;;;;;;9.60;7.23;;;15.50;65.50;;;;;;5033020;28;20447;-77
2023/12/15 01:12:36;;;;;;;9.07;6.83;;;15.50;65.40;;;;;;5032849;28;20476;-77
2023/12/15 01:15:05;;;;;;;9.33;6.40;;;15.50;65.20;;;;;;5032625;28;20455;-77
2023/12/15 01:17:33;;;;;;;9.77;7.43;;;15.50;65.40;;;;;;5032411;28;20472;-77
2023/12/15 01:20:01;;;;;;;15.43;7.00;;;15.50;65.30;;;;;;5033421;28;20451;-77
2023/12/15 01:22:31;;;;;;;9.00;6.30;;;15.50;65.40;;;;;;5034396;28;20463;-77
2023/12/15 01:24:58;;;;;;;10.50;6.60;;;15.50;65.20;;;;;;5033252;28;20518;-77
2023/12/15 01:27:26;;;;;;;8.07;6.37;;;15.50;65.20;;;;;;5033833;28;20978;-77
2023/12/15 01:29:54;;;;;;;10.70;7.70;;;15.50;65.10;;;;;;5045343;28;20443;-77
2023/12/15 01:32:22;;;;;;;9.00;7.37;;;15.50;65.20;;;;;;5038092;28;20443;-77
2023/12/15 01:34:50;;;;;;;10.23;7.40;;;15.50;65.20;;;;;;5038056;28;20454;-77
2023/12/15 01:37:18;;;;;;;11.60;7.30;;;15.50;65.50;;;;;;5036218;28;20467;-77
2023/12/15 01:39:47;;;;;;;8.17;6.57;;;15.50;65.30;;;;;;5036469;28;20438;-77
2023/12/15 01:42:15;;;;;;;9.70;7.20;;;15.50;65.50;;;;;;5037196;28;20471;-77
2023/12/15 01:44:43;;;;;;;8.83;6.60;;;15.50;65.30;;;;;;5037361;28;20505;-77
2023/12/15 01:47:11;;;;;;;6.83;6.03;;;15.50;65.30;;;;;;5037201;28;20486;-77
2023/12/15 01:49:39;;;;;;;10.40;7.40;;;15.50;65.30;;;;;;5036506;28;20439;-77
2023/12/15 01:52:07;;;;;;;10.20;6.53;;;15.50;65.20;;;;;;5036686;28;20431;-77
2023/12/15 01:54:35;;;;;;;9.63;6.70;;;15.40;65.30;;;;;;5038274;28;20512;-77
2023/12/15 01:57:05;;;;;;;10.20;6.73;;;15.40;65.10;;;;;;5037721;28;20467;-77
2023/12/15 01:59:42;;;;;;;8.83;6.80;;;15.50;65.10;;;;;;5037896;28;20513;-77
2023/12/15 02:02:10;;;;;;;9.93;7.33;;;15.40;65.30;;;;;;5036966;28;20420;-77
2023/12/15 02:04:39;;;;;;;8.60;6.77;;;15.40;65.00;;;;;;5036284;28;20481;-77
2023/12/15 02:07:07;;;;;;;10.47;7.23;;;15.40;65.40;;;;;;5031554;28;20494;-75
2023/12/15 02:09:35;;;;;;;8.77;7.10;;;15.40;65.20;;;;;;5036518;28;20443;-77
2023/12/15 02:12:05;;;;;;;8.00;6.80;;;15.40;65.40;;;;;;5036432;28;20477;-76
2023/12/15 02:14:33;;;;;;;9.10;6.97;;;15.50;65.20;;;;;;5036191;28;20443;-77
2023/12/15 02:17:01;;;;;;;9.00;7.00;;;15.50;65.20;;;;;;5035619;28;20471;-77
2023/12/15 02:19:29;;;;;;;9.90;6.70;;;15.40;65.30;;;;;;5035699;28;20458;-76
2023/12/15 02:21:57;;;;;;;9.70;7.03;;;15.40;65.40;;;;;;5035721;28;20435;-76
2023/12/15 02:24:26;;;;;;;9.40;7.33;;;15.40;65.30;;;;;;5035404;28;20538;-76
2023/12/15 02:26:55;;;;;;;10.70;7.30;;;15.40;65.40;;;;;;5034860;28;20467;-77
2023/12/15 02:29:26;;;;;;;10.00;7.50;;;15.40;65.50;;;;;;5035329;28;20463;-75
2023/12/15 02:31:54;;;;;;;9.87;6.67;;;15.40;65.20;;;;;;5035054;28;20447;-75
2023/12/15 02:34:24;;;;;;;11.20;7.60;;;15.40;65.40;;;;;;5035304;28;20440;-76
2023/12/15 02:36:52;;;;;;;11.60;7.00;;;15.50;65.50;;;;;;5034629;28;20474;-75
2023/12/15 02:39:20;;;;;;;9.93;7.03;;;15.40;65.40;;;;;;5034284;28;20475;-76
2023/12/15 02:41:49;;;;;;;11.27;7.23;;;15.40;65.60;;;;;;5035133;28;20440;-76
2023/12/15 02:44:17;;;;;;;10.97;8.50;;;15.40;65.10;;;;;;5034953;28;20463;-75
2023/12/15 02:46:45;;;;;;;10.77;8.30;;;15.40;65.60;;;;;;5034427;28;20463;-75
2023/12/15 02:49:14;;;;;;;12.17;8.00;;;15.40;65.50;;;;;;5034697;28;20537;-76
2023/12/15 02:51:43;;;;;;;11.70;8.57;;;15.40;65.70;;;;;;5035165;28;20528;-75
2023/12/15 02:54:10;;;;;;;12.30;9.03;;;15.50;65.80;;;;;;5034764;28;20453;-75
2023/12/15 02:56:39;;;;;;;14.00;9.60;;;15.40;65.30;;;;;;5034288;28;21004;-75
2023/12/15 02:59:08;;;;;;;11.73;9.30;;;15.40;65.50;;;;;;5034587;28;20471;-75
2023/12/15 03:01:36;;;;;;;14.87;10.60;;;15.40;65.60;;;;;;5034326;28;20439;-75
2023/12/15 03:04:04;;;;;;;13.83;10.13;;;15.40;65.50;;;;;;5034987;28;20466;-75
2023/12/15 03:06:32;;;;;;;16.53;10.80;;;15.40;65.70;;;;;;5033920;28;20463;-75
2023/12/15 03:09:00;;;;;;;15.87;10.80;;;15.50;65.70;;;;;;5034199;28;20857;-75
2023/12/15 03:11:28;;;;;;;15.70;11.20;;;15.50;65.60;;;;;;5034621;28;20443;-75
2023/12/15 03:13:56;;;;;;;18.90;11.57;;;15.50;65.60;;;;;;5034717;28;20432;-75
2023/12/15 03:16:25;;;;;;;15.60;11.33;;;15.50;65.80;;;;;;5034250;28;20474;-75
2023/12/15 03:18:54;;;;;;;19.60;12.43;;;15.50;65.60;;;;;;5034159;28;20475;-75
2023/12/15 03:21:22;;;;;;;18.53;11.23;;;15.40;65.60;;;;;;5034195;28;20485;-75
2023/12/15 03:23:50;;;;;;;18.50;12.53;;;15.50;65.80;;;;;;5029922;28;20471;-75
2023/12/15 03:26:18;;;;;;;16.90;11.47;;;15.50;65.70;;;;;;5034210;28;20506;-75
2023/12/15 03:28:46;;;;;;;18.73;12.20;;;15.50;65.90;;;;;;5033770;28;20439;-74
2023/12/15 03:31:14;;;;;;;17.87;12.23;;;15.50;65.90;;;;;;5034593;28;20448;-75
2023/12/15 03:33:44;;;;;;;18.07;11.90;;;15.50;66.00;;;;;;5034127;28;20447;-74
2023/12/15 03:36:12;;;;;;;17.73;11.83;;;15.40;65.40;;;;;;5034199;28;20471;-75
2023/12/15 03:38:40;;;;;;;19.17;12.23;;;15.40;65.90;;;;;;5033346;28;20471;-75
2023/12/15 03:41:08;;;;;;;17.77;12.40;;;15.50;65.90;;;;;;5033757;28;20447;-74
2023/12/15 03:43:36;;;;;;;18.10;12.70;;;15.50;65.80;;;;;;5034022;28;20459;-74
2023/12/15 03:46:05;;;;;;;17.43;11.43;;;15.50;66.00;;;;;;5033687;28;20481;-74
2023/12/15 03:48:33;;;;;;;18.10;11.50;;;15.50;66.10;;;;;;5033356;28;20514;-74
2023/12/15 03:51:02;;;;;;;16.30;10.87;;;15.50;66.10;;;;;;5034397;28;20526;-74
2023/12/15 03:53:30;;;;;;;19.40;12.20;;;15.50;66.00;;;;;;5033007;28;20535;-73
2023/12/15 03:55:58;;;;;;;16.10;10.70;;;15.50;66.10;;;;;;5023671;28;20459;-75
2023/12/15 03:58:26;;;;;;;15.10;11.33;;;15.50;66.20;;;;;;5033167;28;20475;-75
2023/12/15 04:00:55;;;;;;;16.37;10.93;;;15.50;66.10;;;;;;5029688;28;20538;-75
2023/12/15 04:03:23;;;;;;;17.63;12.50;;;15.50;66.20;;;;;;5022159;28;20459;-75
2023/12/15 04:05:51;;;;;;;18.13;10.93;;;15.50;66.20;;;;;;5025715;28;20475;-75
2023/12/15 04:08:21;;;;;;;17.43;11.70;;;15.50;66.20;;;;;;5032299;28;20460;-75
2023/12/15 04:10:49;;;;;;;15.47;10.80;;;15.50;66.20;;;;;;5025637;28;20439;-75
2023/12/15 04:13:17;;;;;;;16.30;10.50;;;15.50;66.30;;;;;;5037190;28;20466;-76
2023/12/15 04:15:45;;;;;;;17.00;10.90;;;15.50;66.40;;;;;;5053174;28;20454;-75
2023/12/15 04:18:13;;;;;;;17.87;11.10;;;15.60;66.20;;;;;;5052897;28;20531;-75
2023/12/15 04:20:42;;;;;;;16.17;10.83;;;15.60;66.20;;;;;;5043398;28;20446;-75
2023/12/15 04:23:10;;;;;;;15.40;11.07;;;15.60;66.20;;;;;;5048455;28;20466;-75
2023/12/15 04:25:40;;;;;;;16.57;10.47;;;15.50;66.40;;;;;;5037133;28;20479;-75
2023/12/15 04:28:09;;;;;;;15.07;10.70;;;15.50;66.50;;;;;;5033117;28;20498;-75
2023/12/15 04:30:37;;;;;;;15.00;11.13;;;15.50;66.50;;;;;;5035633;28;20919;-75
2023/12/15 04:33:05;;;;;;;15.47;10.43;;;15.50;66.60;;;;;;5032813;28;20448;-75
2023/12/15 04:35:33;;;;;;;15.70;10.67;;;15.50;66.40;;;;;;5032671;28;20526;-75
2023/12/15 04:38:01;;;;;;;15.17;10.20;;;15.50;66.60;;;;;;5040705;28;20526;-76
2023/12/15 04:40:29;;;;;;;17.47;11.63;;;15.60;66.80;;;;;;5032113;28;20467;-75
2023/12/15 04:42:58;;;;;;;17.37;11.13;;;15.60;66.60;;;;;;5041573;28;20493;-75
2023/12/15 04:45:26;;;;;;;13.53;10.13;;;15.60;66.70;;;;;;5039352;28;20439;-75
2023/12/15 04:47:54;;;;;;;17.30;10.20;;;15.60;66.70;;;;;;5040364;28;20431;-75
2023/12/15 04:50:23;;;;;;;15.40;10.30;;;15.60;66.90;;;;;;5037000;28;20433;-74
2023/12/15 04:52:51;;;;;;;13.07;9.80;;;15.60;66.70;;;;;;5036208;28;20428;-75
2023/12/15 04:55:18;;;;;;;14.27;9.73;;;15.60;66.60;;;;;;5036035;28;20453;-75
2023/12/15 04:57:46;;;;;;;15.10;10.20;;;15.60;66.90;;;;;;5045116;28;20535;-75
2023/12/15 05:00:18;;;;;;;14.80;10.17;;;15.60;66.60;;;;;;5048694;28;20475;-75
2023/12/15 05:02:47;;;;;;;16.07;10.07;;;15.60;66.90;;;;;;5038962;28;20423;-75
2023/12/15 05:05:15;;;;;;;11.33;9.17;;;15.60;67.00;;;;;;5032245;28;20758;-75
2023/12/15 05:07:43;;;;;;;14.90;9.60;;;15.60;67.00;;;;;;5042298;28;20946;-75
2023/12/15 05:10:11;;;;;;;14.37;9.20;;;15.60;67.00;;;;;;5034644;28;20499;-75
2023/12/15 05:12:39;;;;;;;13.40;9.83;;;15.60;66.90;;;;;;5039802;28;20446;-75
2023/12/15 05:15:07;;;;;;;11.90;8.70;;;15.70;67.10;;;;;;5033478;28;20455;-75
2023/12/15 05:17:37;;;;;;;18.60;9.40;;;15.70;67.10;;;;;;5031703;28;20969;-75
2023/12/15 05:20:08;;;;;;;12.63;9.00;;;15.70;67.20;;;;;;5049847;28;20478;-75
2023/12/15 05:22:36;;;;;;;13.53;9.00;;;15.70;67.10;;;;;;5032750;28;20442;-75
2023/12/15 05:25:04;;;;;;;13.23;9.50;;;15.60;67.20;;;;;;5029112;28;20586;-75
2023/12/15 05:27:32;;;;;;;13.77;9.90;;;15.70;67.40;;;;;;5046429;28;20479;-75
2023/12/15 05:30:00;;;;;;;13.40;9.20;;;15.70;67.50;;;;;;5032572;28;20467;-75
2023/12/15 05:32:28;;;;;;;12.80;8.70;;;15.70;67.40;;;;;;5043969;28;20446;-75
2023/12/15 05:34:57;;;;;;;15.73;9.50;;;15.60;67.20;;;;;;5032096;28;20446;-75
2023/12/15 05:37:31;;;;;;;12.83;8.20;;;15.70;67.50;;;;;;5020380;28;20557;-76
2023/12/15 05:40:00;;;;;;;11.47;8.43;;;15.70;67.50;;;;;;5052987;28;20474;-75
2023/12/15 05:42:27;;;;;;;11.00;7.93;;;15.70;67.50;;;;;;5054434;28;20442;-75
2023/12/15 05:44:56;;;;;;;11.40;8.27;;;15.70;67.60;;;;;;5052993;28;20502;-76
2023/12/15 05:47:24;;;;;;;12.13;8.30;;;15.70;67.60;;;;;;5051325;28;20542;-75
2023/12/15 05:49:53;;;;;;;11.00;8.00;;;15.70;67.70;;;;;;5052170;28;20443;-74
2023/12/15 05:52:25;;;;;;;9.90;7.33;;;15.70;67.60;;;;;;5051960;28;20442;-75
2023/12/15 05:54:53;;;;;;;10.80;8.13;;;15.70;67.80;;;;;;5052102;28;20459;-76
2023/12/15 05:57:21;;;;;;;10.90;8.27;;;15.70;67.80;;;;;;5040373;28;20490;-76
2023/12/15 05:59:49;;;;;;;10.93;7.80;;;15.80;67.70;;;;;;5031988;28;20471;-76
2023/12/15 06:02:17;;;;;;;11.87;7.70;;;15.70;67.50;;;;;;5014760;28;20484;-76
2023/12/15 06:04:45;;;;;;;10.20;7.70;;;15.70;67.70;;;;;;5012273;28;20436;-76
2023/12/15 06:07:15;;;;;;;11.43;7.80;;;15.70;67.50;;;;;;5011861;28;20539;-73
2023/12/15 06:09:44;;;;;;;10.33;7.53;;;15.70;67.80;;;;;;5012224;28;20436;-73
2023/12/15 06:12:12;;;;;;;8.90;7.20;;;15.70;67.70;;;;;;5012376;28;20480;-73
2023/12/15 06:14:40;;;;;;;9.63;7.37;;;15.70;67.80;;;;;;5014816;28;20449;-73
2023/12/15 06:17:09;;;;;;;9.07;6.87;;;15.70;67.80;;;;;;5034799;28;20471;-73
2023/12/15 06:19:39;;;;;;;9.13;7.00;;;15.70;67.90;;;;;;5035545;28;20471;-73
2023/12/15 06:22:07;;;;;;;10.23;7.87;;;15.70;67.80;;;;;;5035499;28;20475;-76
2023/12/15 06:24:35;;;;;;;9.27;7.10;;;15.70;67.70;;;;;;5035081;28;20530;-73
2023/12/15 06:27:05;;;;;;;7.80;6.50;;;15.70;67.70;;;;;;5034869;28;20467;-73
2023/12/15 06:29:33;;;;;;;10.77;7.20;;;15.70;67.70;;;;;;5035230;28;20439;-73
2023/12/15 06:32:01;;;;;;;11.20;7.60;;;15.70;68.40;;;;;;5031095;28;20437;-73
2023/12/15 06:34:29;;;;;;;9.63;7.30;;;15.70;67.30;;;;;;5030849;28;20519;-73
2023/12/15 06:36:58;;;;;;;9.43;7.50;;;15.70;67.70;;;;;;5043175;28;20467;-73
2023/12/15 06:39:26;;;;;;;9.40;6.67;;;15.70;67.50;;;;;;5038061;28;20438;-74
2023/12/15 06:41:53;;;;;;;10.23;7.30;;;15.70;67.60;;;;;;5038263;28;20469;-74
2023/12/15 06:44:26;;;;;;;10.17;6.70;;;15.70;67.50;;;;;;5034524;28;20487;-73
2023/12/15 06:46:54;;;;;;;8.00;6.60;;;15.70;67.70;;;;;;5040918;28;20541;-73
2023/12/15 06:49:30;;;;;;;12.67;6.70;;;15.70;67.50;;;;;;5043695;28;20443;-73
2023/12/15 06:51:58;;;;;;;8.87;6.40;;;15.70;67.70;;;;;;5034782;28;20428;-73
2023/12/15 06:54:26;;;;;;;8.17;6.40;;;15.70;67.80;;;;;;5034688;28;20553;-72
2023/12/15 06:56:54;;;;;;;9.67;6.53;;;15.70;67.50;;;;;;5034080;28;20524;-73
2023/12/15 06:59:22;;;;;;;8.33;6.50;;;15.70;67.70;;;;;;5034331;28;20428;-73
2023/12/15 07:01:51;;;;;;;8.07;6.50;;;15.70;67.80;;;;;;5026197;28;20471;-74
2023/12/15 07:04:19;;;;;;;7.67;6.43;;;15.70;67.80;;;;;;5034643;28;20499;-74
2023/12/15 07:06:47;;;;;;;7.60;6.07;;;15.70;67.90;;;;;;5034224;28;20475;-74
2023/12/15 07:09:15;;;;;;;11.10;7.23;;;15.70;68.00;;;;;;5034802;28;20478;-74
2023/12/15 07:11:46;;;;;;;7.83;5.90;;;15.70;67.80;;;;;;5034101;28;20447;-74
2023/12/15 07:14:15;;;;;;;8.33;5.93;;;15.70;68.00;;;;;;5034238;28;20482;-75
2023/12/15 07:16:43;;;;;;;7.70;6.27;;;15.70;68.10;;;;;;5034674;28;20468;-75
2023/12/15 07:19:13;;;;;;;9.33;6.40;;;15.80;68.20;;;;;;5034198;28;20878;-75
2023/12/15 07:21:41;;;;;;;10.33;6.60;;;15.80;68.00;;;;;;5034371;28;20529;-74
2023/12/15 07:24:10;;;;;;;8.93;6.37;;;15.80;68.10;;;;;;5034933;28;20448;-75
2023/12/15 07:26:38;;;;;;;8.10;6.33;;;15.80;68.10;;;;;;5032681;28;20510;-74
2023/12/15 07:29:07;;;;;;;8.97;6.13;;;15.80;68.00;;;;;;5033501;28;20448;-74
2023/12/15 07:31:36;;;;;;;10.17;6.70;;;15.80;68.10;;;;;;5033291;28;20444;-74
2023/12/15 07:34:04;;;;;;;10.70;6.83;;;15.90;68.20;;;;;;5033928;28;20482;-74
2023/12/15 07:36:33;;;;;;;8.13;6.43;;;15.80;68.20;;;;;;5033278;28;20543;-74
2023/12/15 07:39:02;;;;;;;7.50;6.60;;;15.80;68.00;;;;;;5033699;28;20464;-75
2023/12/15 07:41:29;;;;;;;9.57;6.97;;;15.90;68.80;;;;;;5033669;28;20494;-76
2023/12/15 07:43:58;;;;;;;14.20;7.40;;;15.90;68.20;;;;;;5034160;28;20468;-76
2023/12/15 07:46:26;;;;;;;11.90;7.40;;;15.90;68.20;;;;;;5033361;28;20455;-75
2023/12/15 07:48:54;;;;;;;10.57;7.23;;;15.90;68.20;;;;;;5034079;28;20574;-75
2023/12/15 07:51:22;;;;;;;11.73;7.33;;;15.90;68.10;;;;;;5033754;28;21018;-76
2023/12/15 07:53:52;;;;;;;12.23;6.87;;;15.90;67.90;;;;;;5033313;28;20503;-76
2023/12/15 07:56:21;;;;;;;10.37;7.07;;;15.90;68.20;;;;;;5032247;28;20459;-75
2023/12/15 07:58:49;;;;;;;11.97;7.43;;;15.90;68.20;;;;;;5033395;28;20439;-75
2023/12/15 08:01:18;;;;;;;13.20;7.67;;;15.90;68.20;;;;;;5033978;28;20518;-77
2023/12/15 08:03:46;;;;;;;11.03;6.50;;;15.90;67.90;;;;;;5035285;28;20439;-75
2023/12/15 08:06:14;;;;;;;10.23;7.00;;;16.00;68.30;;;;;;5035935;28;20479;-77
2023/12/15 08:08:42;;;;;;;10.50;6.90;;;16.00;67.90;;;;;;5035143;28;20443;-79
2023/12/15 08:11:13;;;;;;;9.73;6.90;;;15.90;68.20;;;;;;5031965;28;20447;-77
2023/12/15 08:13:41;;;;;;;11.33;6.47;;;16.00;68.20;;;;;;5033149;28;20443;-78
2023/12/15 08:16:10;;;;;;;10.30;7.23;;;16.00;68.00;;;;;;5032668;28;20499;-77
2023/12/15 08:18:42;;;;;;;12.17;7.50;;;16.00;68.20;;;;;;5031888;28;20525;-78
2023/12/15 08:21:10;;;;;;;12.17;6.83;;;16.10;68.30;;;;;;5033281;28;20495;-77
2023/12/15 08:23:39;;;;;;;11.47;7.40;;;16.10;68.40;;;;;;5034062;28;20447;-78
2023/12/15 08:26:07;;;;;;;8.73;6.20;;;16.00;68.20;;;;;;5033557;28;20509;-78
2023/12/15 08:28:37;;;;;;;10.97;6.80;;;16.10;68.20;;;;;;5033055;28;20463;-77
2023/12/15 08:31:05;;;;;;;10.43;6.80;;;16.10;68.10;;;;;;5031565;28;20459;-77
2023/12/15 08:33:34;;;;;;;8.20;6.27;;;16.10;68.30;;;;;;5031446;28;20451;-77
2023/12/15 08:36:02;;;;;;;12.80;7.00;;;16.10;68.20;;;;;;5031392;28;20467;-77
2023/12/15 08:38:31;;;;;;;12.23;6.87;;;16.20;68.10;;;;;;5030624;28;20440;-78
2023/12/15 08:40:59;;;;;;;10.07;7.10;;;16.20;68.30;;;;;;5031704;28;20973;-77
2023/12/15 08:43:27;;;;;;;8.03;6.10;;;16.20;68.20;;;;;;5033909;28;20440;-78
2023/12/15 08:45:57;;;;;;;9.63;6.63;;;16.20;69.00;;;;;;5034067;28;20459;-78
2023/12/15 08:48:25;;;;;;;10.77;6.50;;;16.20;68.20;;;;;;5034134;28;20466;-77
2023/12/15 08:50:53;;;;;;;8.30;5.83;;;16.20;68.20;;;;;;5032385;28;20432;-77
2023/12/15 08:53:21;;;;;;;12.10;6.40;;;16.20;68.20;;;;;;5032090;28;20945;-77
2023/12/15 08:55:49;;;;;;;10.77;6.97;;;16.30;68.30;;;;;;5031275;28;20455;-77
2023/12/15 08:58:17;;;;;;;8.97;6.00;;;16.30;68.30;;;;;;5031063;28;20474;-78
2023/12/15 09:00:45;;;;;;;10.20;6.60;;;16.30;68.30;;;;;;5031196;28;20439;-77
2023/12/15 09:03:15;;;;;;;8.57;5.73;;;16.30;68.20;;;;;;5031429;28;20451;-77
2023/12/15 09:05:43;;;;;;;9.10;6.17;;;16.30;68.20;;;;;;5032034;28;20467;-78
2023/12/15 09:08:36;;;;;;;8.77;6.33;;;16.30;68.40;;;;;;5033713;28;20435;-80
2023/12/15 09:11:06;;;;;;;11.10;5.77;;;16.30;68.30;;;;;;5032604;28;20446;-77
2023/12/15 09:13:35;;;;;;;10.13;6.53;;;16.30;68.00;;;;;;5031313;28;20475;-78
2023/12/15 09:16:03;;;;;;;7.10;5.30;;;16.40;68.30;;;;;;5032048;28;20497;-77
2023/12/15 09:18:33;;;;;;;10.30;6.00;;;16.30;68.10;;;;;;5031769;28;20454;-78
2023/12/15 09:21:01;;;;;;;9.43;6.33;;;16.40;68.30;;;;;;5032688;28;20466;-78
2023/12/15 09:23:29;;;;;;;10.73;5.80;;;16.40;68.30;;;;;;5031771;28;20439;-78
2023/12/15 09:25:57;;;;;;;13.43;6.27;;;16.40;68.40;;;;;;5032219;28;20463;-78
2023/12/15 09:28:25;;;;;;;10.00;6.00;;;16.50;68.50;;;;;;5031812;28;20489;-78
2023/12/15 09:30:54;;;;;;;10.30;6.23;;;16.50;68.40;;;;;;5032527;28;20451;-78
2023/12/15 09:33:22;;;;;;;10.43;5.50;;;16.60;68.50;;;;;;5032873;28;20958;-77
2023/12/15 09:35:53;;;;;;;9.30;5.93;;;16.60;68.40;;;;;;5032561;28;20483;-78
2023/12/15 09:38:22;;;;;;;7.33;5.40;;;16.70;68.20;;;;;;5033035;28;20448;-77
2023/12/15 09:40:50;;;;;;;9.93;5.13;;;16.70;68.20;;;;;;5033376;28;20443;-78
2023/12/15 09:43:18;;;;;;;9.73;5.33;;;16.80;68.00;;;;;;5032875;28;20471;-78
2023/12/15 09:45:46;;;;;;;11.03;5.60;;;16.80;68.00;;;;;;5033173;28;20486;-78
2023/12/15 09:48:14;;;;;;;6.00;4.57;;;16.80;68.10;;;;;;5032088;28;20526;-77
2023/12/15 09:50:42;;;;;;;9.40;5.60;;;16.90;68.10;;;;;;5035329;28;20435;-78
2023/12/15 09:53:12;;;;;;;8.63;5.57;;;16.90;68.00;;;;;;5037162;28;20930;-77
2023/12/15 09:55:40;;;;;;;7.43;5.00;;;16.90;67.80;;;;;;5037115;28;20506;-77
2023/12/15 09:58:08;;;;;;;13.90;5.53;;;16.90;67.80;;;;;;5039913;28;20428;-76
2023/12/15 10:00:36;;;;;;;10.33;5.17;;;16.90;67.70;;;;;;5041929;28;20448;-77
2023/12/15 10:03:04;;;;;;;7.37;5.40;;;17.00;67.70;;;;;;5036560;28;20471;-77
2023/12/15 10:05:33;;;;;;;7.40;5.03;;;17.00;68.00;;;;;;5035788;28;20495;-77
2023/12/15 10:08:01;;;;;;;10.13;5.47;;;17.00;68.00;;;;;;5034588;28;20457;-77
2023/12/15 10:10:30;;;;;;;9.53;5.13;;;17.10;68.00;;;;;;5034409;28;20443;-77
2023/12/15 10:12:59;;;;;;;7.03;4.77;;;17.10;68.00;;;;;;5034436;28;20431;-76
2023/12/15 10:15:26;;;;;;;9.93;5.27;;;17.10;67.90;;;;;;5034193;28;20506;-77
2023/12/15 10:17:57;;;;;;;8.80;5.40;;;17.20;68.00;;;;;;5034018;28;20455;-77
2023/12/15 10:20:26;;;;;;;11.30;5.07;;;17.20;68.00;;;;;;5034332;28;20527;-77
2023/12/15 10:23:01;;;;;;;10.50;4.93;;;17.20;68.00;;;;;;5034113;28;20475;-77
2023/12/15 10:25:30;;;;;;;9.83;5.67;;;17.20;67.90;;;;;;5034327;28;20435;-77
2023/12/15 10:27:59;;;;;;;9.57;4.60;;;17.20;68.00;;;;;;5039000;28;20443;-77
2023/12/15 10:30:29;;;;;;;8.80;4.70;;;17.30;67.90;;;;;;5041558;28;20497;-78
2023/12/15 10:32:58;;;;;;;10.40;5.30;;;17.30;67.90;;;;;;5039722;28;20447;-77
2023/12/15 10:35:28;;;;;;;14.10;5.03;;;17.30;68.00;;;;;;5036720;28;20455;-77
2023/12/15 10:37:56;;;;;;;8.97;5.23;;;17.30;68.00;;;;;;5035436;28;20447;-77
2023/12/15 10:40:24;;;;;;;11.00;5.10;;;17.40;68.00;;;;;;5034538;28;20455;-77
2023/12/15 10:42:54;;;;;;;10.07;5.23;;;17.30;68.00;;;;;;5034312;28;20470;-76
2023/12/15 10:45:23;;;;;;;9.63;5.40;;;17.30;68.00;;;;;;5034334;28;20539;-77
2023/12/15 10:47:51;;;;;;;7.83;4.80;;;17.30;68.10;;;;;;5033728;28;20543;-77
2023/12/15 10:50:20;;;;;;;7.60;5.00;;;17.30;68.20;;;;;;5034162;28;20501;-77
2023/12/15 10:52:48;;;;;;;11.83;4.80;;;17.30;68.20;;;;;;5033852;28;20467;-77
2023/12/15 10:55:19;;;;;;;8.07;4.13;;;17.30;68.40;;;;;;5033824;28;20490;-77
2023/12/15 10:57:47;;;;;;;6.90;4.60;;;17.20;68.50;;;;;;5033511;28;20493;-77
2023/12/15 11:00:18;;;;;;;6.67;5.00;;;17.20;68.40;;;;;;5033437;28;20447;-77
2023/12/15 11:02:47;;;;;;;7.40;4.83;;;17.20;68.60;;;;;;5034087;28;20910;-77
2023/12/15 11:05:14;;;;;;;12.27;5.17;;;17.20;68.70;;;;;;5033954;28;20471;-78
2023/12/15 11:07:45;;;;;;;9.20;4.43;;;17.20;68.70;;;;;;5033324;28;20443;-77
2023/12/15 11:10:13;;;;;;;12.90;4.90;;;17.20;68.70;;;;;;5033925;28;20432;-77
2023/12/15 11:12:42;;;;;;;9.80;4.83;;;17.20;68.90;;;;;;5032836;28;20451;-77
2023/12/15 11:15:11;;;;;;;7.80;4.57;;;17.20;69.00;;;;;;5022772;28;20494;-77
2023/12/15 11:17:42;;;;;;;7.60;4.47;;;17.20;69.00;;;;;;5038336;28;20551;-78
2023/12/15 11:20:12;;;;;;;9.07;5.10;;;17.20;69.00;;;;;;5047641;28;20449;-79
2023/12/15 11:22:48;;;;;;;11.33;5.07;;;17.20;68.90;;;;;;5047640;28;20471;-78
2023/12/15 11:25:19;;;;;;;9.17;4.63;;;17.20;69.00;;;;;;5051905;28;20435;-79
2023/12/15 11:28:08;;;;;;;10.03;4.50;;;17.20;69.20;;;;;;5044442;28;20474;-77
2023/12/15 11:30:37;;;;;;;8.93;4.53;;;17.20;69.20;;;;;;5055745;28;20494;-77
2023/12/15 11:33:40;;;;;;;7.90;4.53;;;17.20;69.30;;;;;;5051567;28;20443;-78
2023/12/15 11:36:13;;;;;;;9.40;4.73;;;17.20;69.50;;;;;;5035145;28;20458;-77
2023/12/15 11:38:41;;;;;;;11.10;4.53;;;17.20;69.60;;;;;;5038605;28;20447;-77
2023/12/15 11:41:10;;;;;;;11.40;5.40;;;17.20;70.10;;;;;;5044425;28;20471;-78
2023/12/15 11:43:40;;;;;;;9.40;4.73;;;17.20;69.50;;;;;;5047185;28;20480;-78
2023/12/15 11:46:10;;;;;;;9.27;4.50;;;17.20;69.40;;;;;;5054962;28;20466;-78
2023/12/15 11:48:39;;;;;;;6.50;4.30;;;17.20;69.60;;;;;;5046367;28;20450;-78
2023/12/15 11:51:08;;;;;;;10.00;4.43;;;17.20;69.60;;;;;;5048027;28;20518;-78
2023/12/15 11:53:41;;;;;;;11.50;5.60;;;17.30;69.70;;;;;;5048651;28;20493;-76
2023/12/15 11:56:10;;;;;;;12.90;6.00;;;17.30;69.60;;;;;;5053817;28;20462;-78
2023/12/15 11:58:39;;;;;;;11.17;5.27;;;17.30;69.70;;;;;;5045217;28;20541;-78
2023/12/15 12:01:08;;;;;;;14.90;5.50;;;17.30;69.70;;;;;;5049238;28;20471;-78
2023/12/15 12:03:36;;;;;;;7.93;5.10;;;17.30;69.80;;;;;;5045969;28;20446;-78
2023/12/15 12:06:08;;;;;;;9.93;5.90;;;17.30;69.60;;;;;;5051016;28;21080;-78
2023/12/15 12:08:39;;;;;;;10.97;5.83;;;17.30;69.90;;;;;;5043477;28;20538;-78
2023/12/15 12:11:07;;;;;;;12.37;6.03;;;17.30;69.90;;;;;;5047019;28;20952;-77
2023/12/15 12:13:43;;;;;;;16.40;6.00;;;17.30;69.70;;;;;;5045171;28;20446;-78
2023/12/15 12:16:19;;;;;;;11.27;6.67;;;17.40;69.80;;;;;;5034800;28;20533;-78
2023/12/15 12:18:49;;;;;;;10.93;6.60;;;17.40;69.80;;;;;;5034375;28;20422;-77
2023/12/15 12:21:17;;;;;;;12.47;6.57;;;17.40;69.70;;;;;;5032719;28;21013;-77
2023/12/15 12:23:49;;;;;;;12.60;6.50;;;17.50;69.90;;;;;;5041297;28;20479;-75
2023/12/15 12:26:17;;;;;;;15.63;6.50;;;17.50;69.80;;;;;;5050821;28;20462;-75
2023/12/15 12:28:48;;;;;;;18.73;7.43;;;17.50;69.70;;;;;;5049386;28;20462;-76
2023/12/15 12:31:17;;;;;;;11.10;6.80;;;17.60;69.80;;;;;;5045701;28;20426;-78
2023/12/15 12:33:46;;;;;;;11.63;6.77;;;17.60;69.80;;;;;;5032592;28;20452;-77
2023/12/15 12:36:17;;;;;;;13.03;7.07;;;17.60;69.70;;;;;;5053141;28;20450;-76
2023/12/15 12:38:45;;;;;;;17.00;7.20;;;17.60;69.50;;;;;;5037349;28;20446;-78
2023/12/15 12:41:16;;;;;;;15.47;6.80;;;17.60;70.20;;;;;;5045400;28;20449;-80
2023/12/15 12:43:44;;;;;;;20.17;6.63;;;17.40;68.30;;;;;;5037367;28;20480;-80
2023/12/15 12:46:13;;;;;;;23.67;6.90;;;17.20;67.90;;;;;;5036333;28;20494;-80